createdAt,value
2022-09-12T00:02:09.156Z,0.17391304347826086
2022-09-12T00:11:38.700Z,0.35451505016722407
2022-09-12T00:18:08.972Z,0.7993311036789298
2022-09-12T00:24:47.478Z,0.3277591973244147
2022-09-12T00:31:16.167Z,0.1806020066889632
2022-09-12T00:37:46.068Z,0.17391304347826086
2022-09-12T00:54:54.035Z,0.17391304347826086
2022-09-12T01:07:16.132Z,0.34782608695652173
2022-09-12T01:13:44.886Z,0.06020066889632107
2022-09-12T01:20:12.967Z,0.5150501672240803
2022-09-12T01:26:50.646Z,0.24749163879598662
2022-09-12T01:35:11.056Z,0.3411371237458194
2022-09-12T01:41:38.727Z,0.22073578595317725
2022-09-12T01:53:04.805Z,0.38127090301003347
2022-09-12T02:04:45.813Z,0.10033444816053512
2022-09-12T02:16:06.110Z,0.34782608695652173
2022-09-12T02:22:34.679Z,0.15384615384615385
2022-09-12T02:38:35.820Z,0.1939799331103679
2022-09-12T02:45:03.983Z,0.26755852842809363
2022-09-12T02:51:31.853Z,0.2809364548494983
2022-09-12T02:58:00.596Z,0.22073578595317725
2022-09-12T03:05:59.520Z,0.08695652173913043
2022-09-12T03:12:27.027Z,0.25418060200668896
2022-09-12T03:18:54.983Z,0.24749163879598662
2022-09-12T03:25:23.354Z,0.13377926421404682
2022-09-12T03:31:53.386Z,0.28762541806020064
2022-09-12T03:38:23.098Z,0.2608695652173913
2022-09-12T03:44:52.598Z,0.38127090301003347
2022-09-12T03:51:23.838Z,0.31438127090301005
2022-09-12T03:59:28.164Z,0.27424749163879597
2022-09-12T04:05:58.105Z,0.0
2022-09-12T04:22:47.592Z,0.41471571906354515
2022-09-12T04:30:28.936Z,0.29431438127090304
2022-09-12T04:36:59.398Z,0.4816053511705686
2022-09-12T04:43:28.673Z,0.16722408026755853
2022-09-12T04:49:58.794Z,0.31438127090301005
2022-09-12T04:56:25.794Z,0.28762541806020064
2022-09-12T05:02:54.755Z,0.4882943143812709
2022-09-12T05:09:24.134Z,0.33444816053511706
2022-09-12T05:21:15.374Z,0.20735785953177258
2022-09-12T05:30:51.004Z,0.2408026755852843
2022-09-12T05:37:20.213Z,0.27424749163879597
2022-09-12T05:48:20.385Z,0.10702341137123746
2022-09-12T05:54:49.004Z,0.27424749163879597
2022-09-12T06:01:16.778Z,0.5150501672240803
2022-09-12T06:16:29.302Z,0.28762541806020064
2022-09-12T06:31:07.414Z,0.44816053511705684
2022-09-12T06:43:51.013Z,0.49498327759197325
2022-09-12T06:50:18.254Z,0.6822742474916388
2022-09-12T06:56:45.565Z,0.4013377926421405
2022-09-12T07:03:13.087Z,0.6622073578595318
2022-09-12T07:12:20.354Z,0.5953177257525084
2022-09-12T07:24:51.998Z,0.6889632107023411
2022-09-12T07:31:19.490Z,1.1973244147157192
2022-09-12T07:37:46.483Z,0.9096989966555183
2022-09-12T07:44:13.295Z,0.5150501672240803
2022-09-12T07:50:44.952Z,1.0167224080267558
2022-09-12T07:57:12.681Z,0.9765886287625418
2022-09-12T08:03:39.489Z,1.1839464882943145
2022-09-12T08:10:06.854Z,0.6822742474916388
2022-09-12T08:16:33.706Z,1.1270903010033444
2022-09-12T08:23:08.576Z,1.6622073578595318
2022-09-12T08:35:17.078Z,1.5752508361204014
2022-09-12T08:41:44.225Z,0.9832775919732442
2022-09-12T08:50:10.806Z,1.1973244147157192
2022-09-12T09:01:14.226Z,0.822742474916388
2022-09-12T09:07:44.280Z,1.0535117056856187
2022-09-12T09:15:34.033Z,1.3043478260869565
2022-09-12T09:24:16.481Z,1.7090301003344481
2022-09-12T09:45:47.979Z,0.6220735785953178
2022-09-12T09:52:15.713Z,0.8361204013377926
2022-09-12T10:08:30.664Z,1.3377926421404682
2022-09-12T10:14:57.459Z,0.8695652173913043
2022-09-12T10:21:24.876Z,0.782608695652174
2022-09-12T10:28:01.248Z,0.6555183946488294
2022-09-12T10:34:57.277Z,0.903010033444816
2022-09-12T10:42:11.510Z,0.22073578595317725
2022-09-12T10:48:38.711Z,0.46153846153846156
2022-09-12T10:55:06.423Z,0.7290969899665551
2022-09-12T11:01:34.019Z,0.5284280936454849
2022-09-12T11:08:01.577Z,0.6086956521739131
2022-09-12T11:14:48.438Z,0.6020066889632107
2022-09-12T11:21:16.644Z,0.5150501672240803
2022-09-12T11:28:31.292Z,0.3745819397993311
2022-09-12T11:41:14.601Z,0.5986622073578596
2022-09-12T11:50:36.951Z,0.2608695652173913
2022-09-12T11:58:05.250Z,0.08695652173913043
2022-09-12T12:04:59.149Z,0.17391304347826086
2022-09-12T12:11:22.387Z,0.3979933110367893
2022-09-12T12:17:46.017Z,0.17391304347826086
2022-09-12T12:24:13.295Z,0.35451505016722407
2022-09-12T12:30:37.212Z,0.2608695652173913
2022-09-12T12:52:14.622Z,0.27424749163879597
2022-09-12T12:58:38.298Z,0.0
2022-09-12T13:05:01.368Z,0.2608695652173913
2022-09-12T13:11:24.310Z,0.1806020066889632
2022-09-12T13:17:53.252Z,0.2608695652173913
2022-09-12T13:24:15.955Z,0.27424749163879597
2022-09-12T13:36:00.736Z,0.17391304347826086
2022-09-12T13:44:46.481Z,0.0
2022-09-12T13:51:10.137Z,0.2608695652173913
2022-09-12T13:57:34.887Z,0.17391304347826086
2022-09-12T14:04:03.431Z,0.17391304347826086
2022-09-12T14:10:28.342Z,0.1806020066889632
2022-09-12T14:18:12.653Z,0.0
2022-09-12T14:24:36.387Z,0.0
2022-09-12T14:33:32.245Z,0.08695652173913043
2022-09-12T14:47:37.810Z,0.17391304347826086
2022-09-12T14:54:00.890Z,0.35451505016722407
2022-09-12T15:00:24.952Z,0.1806020066889632
2022-09-12T15:08:15.417Z,0.17391304347826086
2022-09-12T15:14:39.218Z,0.17391304347826086
2022-09-12T15:21:03.133Z,0.17391304347826086
2022-09-12T15:27:25.833Z,0.33444816053511706
2022-09-12T15:33:49.177Z,0.35451505016722407
2022-09-12T15:40:12.674Z,0.1806020066889632
2022-09-12T15:46:37.336Z,0.08695652173913043
2022-09-12T15:53:00.885Z,0.5083612040133779
2022-09-12T15:59:23.866Z,0.20735785953177258
2022-09-12T16:09:55.934Z,0.2608695652173913
2022-09-12T16:16:18.647Z,0.26755852842809363
2022-09-12T16:22:42.758Z,0.4882943143812709
2022-09-12T16:29:06.286Z,0.12709030100334448
2022-09-12T16:35:30.059Z,0.13377926421404682
2022-09-12T16:41:54.037Z,0.5217391304347826
2022-09-12T16:50:18.347Z,0.2608695652173913
2022-09-12T16:56:42.442Z,0.2608695652173913
2022-09-12T17:03:07.530Z,0.09364548494983277
2022-09-12T17:09:32.189Z,0.033444816053511704
2022-09-12T17:15:56.717Z,0.09364548494983277
2022-09-12T17:26:24.396Z,0.17391304347826086
2022-09-12T17:32:50.113Z,0.35451505016722407
2022-09-12T17:39:14.290Z,0.17391304347826086
2022-09-12T17:46:30.261Z,0.23411371237458195
2022-09-12T17:52:58.798Z,0.8695652173913043
2022-09-12T17:59:32.532Z,0.34782608695652173
2022-09-12T18:12:16.348Z,0.3411371237458194
2022-09-12T18:18:57.590Z,0.34782608695652173
2022-09-12T18:25:29.131Z,0.5752508361204013
2022-09-12T18:32:00.998Z,0.568561872909699
2022-09-12T18:42:42.247Z,0.4080267558528428
2022-09-12T18:49:12.517Z,0.43478260869565216
2022-09-12T18:55:57.562Z,0.28762541806020064
2022-09-12T19:05:54.428Z,0.45484949832775917
2022-09-12T19:12:26.685Z,0.5551839464882943
2022-09-12T19:25:15.737Z,0.16722408026755853
2022-09-12T19:31:48.434Z,0.2608695652173913
2022-09-12T19:39:57.433Z,0.6020066889632107
2022-09-12T19:46:39.711Z,0.23411371237458195
2022-09-12T19:53:22.891Z,0.5819397993311036
2022-09-12T20:05:00.432Z,0.6421404682274248
2022-09-12T20:11:35.300Z,0.3010033444816054
2022-09-12T20:18:08.695Z,0.0802675585284281
2022-09-12T20:24:35.664Z,0.4280936454849498
2022-09-12T20:31:04.482Z,0.2608695652173913
2022-09-12T20:40:04.307Z,0.05351170568561873
2022-09-12T20:46:34.480Z,0.36789297658862874
2022-09-12T20:53:04.359Z,0.9163879598662207
2022-09-12T20:59:33.343Z,0.26755852842809363
2022-09-12T21:06:01.798Z,0.2608695652173913
2022-09-12T21:12:29.982Z,0.3411371237458194
2022-09-12T21:18:56.734Z,0.4782608695652174
2022-09-12T21:25:24.072Z,0.34782608695652173
2022-09-12T21:31:50.710Z,0.5317725752508361
2022-09-12T21:38:17.307Z,0.43478260869565216
2022-09-12T21:44:43.327Z,0.34782608695652173
2022-09-12T21:51:10.613Z,0.44816053511705684
2022-09-12T21:57:37.224Z,0.568561872909699
2022-09-12T22:08:53.543Z,0.41471571906354515
2022-09-12T22:24:51.344Z,0.17391304347826086
2022-09-12T22:31:19.716Z,0.44816053511705684
2022-09-12T22:37:49.328Z,0.12040133779264214
2022-09-12T22:44:16.678Z,0.08695652173913043
2022-09-12T22:50:43.206Z,0.3411371237458194
2022-09-12T23:01:22.952Z,0.0
2022-09-12T23:07:49.435Z,0.43478260869565216
2022-09-12T23:14:16.517Z,0.35451505016722407
2022-09-12T23:20:43.294Z,0.08695652173913043
2022-09-12T23:27:14.912Z,0.31438127090301005
2022-09-12T23:33:41.103Z,0.35451505016722407
2022-09-12T23:40:08.319Z,0.3411371237458194
2022-09-12T23:47:07.148Z,0.4280936454849498
2022-09-12T23:53:34.753Z,0.3076923076923077
